createdAt,value
2019-06-01T00:00:10.923Z,15.00
2019-06-01T00:03:03.004Z,15.00
2019-06-01T00:06:06.664Z,14.97
2019-06-01T00:09:11.049Z,14.82
2019-06-01T00:12:15.010Z,14.86
2019-06-01T00:15:18.807Z,14.80
2019-06-01T00:18:22.744Z,14.80
2019-06-01T00:21:26.442Z,14.77
2019-06-01T00:24:30.173Z,14.86
2019-06-01T00:27:33.892Z,14.87
2019-06-01T00:30:37.918Z,14.87
2019-06-01T00:33:41.630Z,14.89
2019-06-01T00:36:45.622Z,14.91
2019-06-01T00:39:50.062Z,14.86
2019-06-01T00:42:54.171Z,14.86
2019-06-01T00:45:57.853Z,14.81
2019-06-01T00:49:01.804Z,14.88
2019-06-01T00:52:05.508Z,14.82
2019-06-01T00:55:09.540Z,14.82
2019-06-01T00:58:13.278Z,14.74
2019-06-01T01:01:17.306Z,14.74
2019-06-01T01:04:21.011Z,14.79
2019-06-01T01:07:24.959Z,14.82
2019-06-01T01:10:28.674Z,14.89
2019-06-01T01:13:33.145Z,14.89
2019-06-01T01:16:36.874Z,14.93
2019-06-01T01:19:41.127Z,14.88
2019-06-01T01:22:46.101Z,14.88
2019-06-01T01:25:50.486Z,14.86
2019-06-01T01:28:54.923Z,14.86
2019-06-01T01:31:58.721Z,14.77
2019-06-01T01:35:02.453Z,14.77
2019-06-01T01:38:06.430Z,14.70
2019-06-01T01:41:10.450Z,14.76
2019-06-01T01:44:14.158Z,14.71
2019-06-01T01:47:17.847Z,14.76
2019-06-01T01:50:23.364Z,14.70
2019-06-01T01:53:27.423Z,14.68
2019-06-01T01:56:31.446Z,14.61
2019-06-01T01:59:35.182Z,14.61
2019-06-01T02:02:39.175Z,14.57
2019-06-01T02:05:43.029Z,14.61
2019-06-01T02:08:46.728Z,14.63
2019-06-01T02:11:51.399Z,14.57
2019-06-01T02:14:55.652Z,14.55
2019-06-01T02:18:00.625Z,14.54
2019-06-01T02:21:04.580Z,14.57
2019-06-01T02:24:08.275Z,14.60
2019-06-01T02:27:12.004Z,14.67
2019-06-01T02:30:17.397Z,14.68
2019-06-01T02:33:21.081Z,14.71
2019-06-01T02:36:24.805Z,14.73
2019-06-01T02:39:28.495Z,14.83
2019-06-01T02:42:32.672Z,14.74
2019-06-01T02:45:36.812Z,14.74
2019-06-01T02:48:40.725Z,14.73
2019-06-01T02:51:44.458Z,14.73
2019-06-01T02:54:48.417Z,14.74
2019-06-01T02:57:52.341Z,14.80
2019-06-01T03:01:30.041Z,14.76
2019-06-01T03:04:33.888Z,14.89
2019-06-01T03:07:39.391Z,14.85
2019-06-01T03:10:44.084Z,14.93
2019-06-01T03:13:51.497Z,14.95
2019-06-01T03:16:59.748Z,14.89
2019-06-01T03:20:06.287Z,14.92
2019-06-01T03:23:12.579Z,14.92
2019-06-01T03:26:20.145Z,14.97
2019-06-01T03:29:27.161Z,15.00
2019-06-01T03:32:36.656Z,14.99
2019-06-01T03:35:36.723Z,15.00
2019-06-01T03:38:40.865Z,15.04
2019-06-01T03:41:44.655Z,15.04
2019-06-01T03:44:48.361Z,15.07
2019-06-01T03:47:52.546Z,15.13
2019-06-01T03:50:56.398Z,15.11
2019-06-01T03:54:00.880Z,15.14
2019-06-01T03:57:05.339Z,15.20
2019-06-01T04:00:09.542Z,15.30
2019-06-01T04:03:13.302Z,15.34
2019-06-01T04:06:17.568Z,15.36
2019-06-01T04:09:21.890Z,15.43
2019-06-01T04:12:25.599Z,15.50
2019-06-01T04:15:29.603Z,15.59
2019-06-01T04:18:33.298Z,15.59
2019-06-01T04:21:36.978Z,15.57
2019-06-01T04:24:40.695Z,15.67
2019-06-01T04:27:44.458Z,15.75
2019-06-01T04:30:48.435Z,15.75
2019-06-01T04:33:52.130Z,15.90
2019-06-01T04:36:56.374Z,15.86
2019-06-01T04:40:00.066Z,15.96
2019-06-01T04:43:05.635Z,15.99
2019-06-01T04:46:10.347Z,16.06
2019-06-01T04:49:15.048Z,16.14
2019-06-01T04:52:18.735Z,16.15
2019-06-01T04:55:22.429Z,16.17
2019-06-01T04:58:26.595Z,16.23
2019-06-01T05:01:30.858Z,16.28
2019-06-01T05:04:34.802Z,16.39
2019-06-01T05:07:38.706Z,16.32
2019-06-01T05:10:42.426Z,16.30
2019-06-01T05:13:46.402Z,16.28
2019-06-01T05:16:50.405Z,16.29
2019-06-01T05:19:54.543Z,16.37
2019-06-01T05:22:58.223Z,16.43
2019-06-01T05:26:02.621Z,16.33
2019-06-01T05:29:07.466Z,16.40
2019-06-01T05:32:12.521Z,16.39
2019-06-01T05:35:17.921Z,16.50
2019-06-01T05:38:21.695Z,16.52
2019-06-01T05:41:25.999Z,16.40
2019-06-01T05:44:29.676Z,16.45
2019-06-01T05:47:33.369Z,16.51
2019-06-01T05:50:37.064Z,16.57
2019-06-01T05:53:40.783Z,16.60
2019-06-01T05:56:44.832Z,16.77
2019-06-01T05:59:49.050Z,16.75
2019-06-01T06:02:52.850Z,17.01
2019-06-01T06:05:56.556Z,16.86
2019-06-01T06:09:00.275Z,16.97
2019-06-01T06:12:04.060Z,17.12
2019-06-01T06:15:08.523Z,17.00
2019-06-01T06:18:13.666Z,17.15
2019-06-01T06:21:18.545Z,17.25
2019-06-01T06:24:22.801Z,17.24
2019-06-01T06:27:26.485Z,17.30
2019-06-01T06:30:30.207Z,17.50
2019-06-01T06:33:36.831Z,17.60
2019-06-01T06:36:39.632Z,17.49
2019-06-01T06:39:43.386Z,17.58
2019-06-01T06:42:47.086Z,17.71
2019-06-01T06:45:50.775Z,17.71
2019-06-01T06:48:55.022Z,17.92
2019-06-01T06:51:58.822Z,17.92
2019-06-01T06:55:02.626Z,18.07
2019-06-01T06:58:06.327Z,18.09
2019-06-01T07:01:12.163Z,18.35
2019-06-01T07:04:17.084Z,18.29
2019-06-01T07:07:21.700Z,18.43
2019-06-01T07:10:26.330Z,18.60
2019-06-01T07:13:31.553Z,18.87
2019-06-01T07:16:35.297Z,18.82
2019-06-01T07:19:38.995Z,18.74
2019-06-01T07:22:42.982Z,18.76
2019-06-01T07:25:46.966Z,18.97
2019-06-01T07:28:50.704Z,19.03
2019-06-01T07:31:54.419Z,18.95
2019-06-01T07:35:00.984Z,19.17
2019-06-01T07:38:04.258Z,19.26
2019-06-01T07:41:07.980Z,19.26
2019-06-01T07:44:11.705Z,19.11
2019-06-01T07:47:15.403Z,19.12
2019-06-01T07:50:19.814Z,19.06
2019-06-01T07:53:24.180Z,19.24
2019-06-01T07:56:29.331Z,19.16
2019-06-01T07:59:33.459Z,19.31
2019-06-01T08:02:37.351Z,19.57
2019-06-01T08:05:41.682Z,19.68
2019-06-01T08:08:45.735Z,19.67
2019-06-01T08:11:49.463Z,19.81
2019-06-01T08:14:53.548Z,19.97
2019-06-01T08:17:57.508Z,20.27
2019-06-01T08:21:01.209Z,20.47
2019-06-01T08:24:05.112Z,20.76
2019-06-01T08:27:08.848Z,20.47
2019-06-01T08:30:13.341Z,20.29
2019-06-01T08:33:17.347Z,20.21
2019-06-01T08:36:21.034Z,20.27
2019-06-01T08:39:25.255Z,20.25
2019-06-01T08:42:29.559Z,20.81
2019-06-01T08:45:37.272Z,20.31
2019-06-01T08:48:38.871Z,20.26
2019-06-01T08:51:42.573Z,20.39
2019-06-01T08:54:46.994Z,20.50
2019-06-01T08:57:50.972Z,20.76
2019-06-01T09:00:54.891Z,20.89
2019-06-01T09:03:58.585Z,21.02
2019-06-01T09:07:02.721Z,21.18
2019-06-01T09:10:07.967Z,20.99
2019-06-01T09:13:11.721Z,21.40
2019-06-01T09:16:15.448Z,21.34
2019-06-01T09:19:20.097Z,21.12
2019-06-01T09:22:23.871Z,21.17
2019-06-01T09:25:27.911Z,21.23
2019-06-01T09:28:32.157Z,21.39
2019-06-01T09:31:36.731Z,21.82
2019-06-01T09:34:40.894Z,21.92
2019-06-01T09:37:45.872Z,22.15
2019-06-01T09:40:50.370Z,22.52
2019-06-01T09:43:54.372Z,22.42
2019-06-01T09:46:58.132Z,22.23
2019-06-01T09:50:01.833Z,22.51
2019-06-01T09:53:05.899Z,22.54
2019-06-01T09:56:09.616Z,22.24
2019-06-01T09:59:13.333Z,22.50
2019-06-01T10:02:17.432Z,22.69
2019-06-01T10:05:21.189Z,22.57
2019-06-01T10:08:24.870Z,22.69
2019-06-01T10:11:29.839Z,22.33
2019-06-01T10:14:34.171Z,22.82
2019-06-01T10:17:39.036Z,23.58
2019-06-01T10:20:43.235Z,23.93
2019-06-01T10:23:49.664Z,23.63
2019-06-01T10:26:52.696Z,23.80
2019-06-01T10:29:56.429Z,24.64
2019-06-01T10:33:00.429Z,24.64
2019-06-01T10:36:19.309Z,24.67
2019-06-01T10:39:10.101Z,25.32
2019-06-01T10:42:13.802Z,25.68
2019-06-01T10:45:17.641Z,26.56
2019-06-01T10:48:21.600Z,27.91
2019-06-01T10:51:25.363Z,27.85
2019-06-01T10:54:29.304Z,27.90
2019-06-01T10:57:34.497Z,28.23
2019-06-01T11:00:45.505Z,27.90
2019-06-01T11:03:43.657Z,27.75
2019-06-01T11:06:48.855Z,27.87
2019-06-01T11:09:52.725Z,29.24
2019-06-01T11:12:56.674Z,29.18
2019-06-01T11:16:00.442Z,28.36
2019-06-01T11:19:04.603Z,28.56
2019-06-01T11:22:08.370Z,28.77
2019-06-01T11:25:12.316Z,29.35
2019-06-01T11:28:16.338Z,29.36
2019-06-01T11:31:20.646Z,29.13
2019-06-01T11:34:24.454Z,28.09
2019-06-01T11:37:28.164Z,29.66
2019-06-01T11:40:32.176Z,29.17
2019-06-01T11:43:36.496Z,29.10
2019-06-01T11:46:41.090Z,28.72
2019-06-01T11:49:45.122Z,28.88
2019-06-01T11:52:48.834Z,29.25
2019-06-01T11:55:52.541Z,29.09
2019-06-01T11:58:56.232Z,28.60
2019-06-01T12:02:00.270Z,29.05
2019-06-01T12:05:04.384Z,29.38
2019-06-01T12:08:08.136Z,30.10
2019-06-01T12:11:11.833Z,29.51
2019-06-01T12:14:15.544Z,29.46
2019-06-01T12:17:19.548Z,28.86
2019-06-01T12:20:23.868Z,29.70
2019-06-01T12:23:28.034Z,29.40
2019-06-01T12:26:32.104Z,29.31
2019-06-01T12:29:35.899Z,29.68
2019-06-01T12:32:39.911Z,29.13
2019-06-01T12:35:44.007Z,29.91
2019-06-01T12:38:54.056Z,29.25
2019-06-01T12:41:58.317Z,30.07
2019-06-01T12:45:02.240Z,29.62
2019-06-01T12:48:06.175Z,30.00
2019-06-01T12:51:09.860Z,29.15
2019-06-01T12:54:13.808Z,29.79
2019-06-01T12:57:17.523Z,29.94
2019-06-01T13:00:21.597Z,29.28
2019-06-01T13:03:25.599Z,29.51
2019-06-01T13:06:29.892Z,29.90
2019-06-01T13:09:33.584Z,29.25
2019-06-01T13:12:37.272Z,29.34
2019-06-01T13:15:41.230Z,28.60
2019-06-01T13:18:45.400Z,28.22
2019-06-01T13:21:50.172Z,28.47
2019-06-01T13:24:54.388Z,28.52
2019-06-01T13:27:58.325Z,28.85
2019-06-01T13:31:02.336Z,28.72
2019-06-01T13:34:06.096Z,28.53
2019-06-01T13:37:09.883Z,28.82
2019-06-01T13:40:14.258Z,28.49
2019-06-01T13:43:17.951Z,28.27
2019-06-01T13:46:21.636Z,28.47
2019-06-01T13:49:25.599Z,28.12
2019-06-01T13:52:29.288Z,28.35
2019-06-01T13:55:33.001Z,28.28
2019-06-01T13:58:37.305Z,27.49
2019-06-01T14:01:41.330Z,27.64
2019-06-01T14:04:45.360Z,28.18
2019-06-01T14:07:49.518Z,28.23
2019-06-01T14:10:53.321Z,27.88
2019-06-01T14:13:57.368Z,27.67
2019-06-01T14:17:01.353Z,27.91
2019-06-01T14:20:05.335Z,27.89
2019-06-01T14:23:09.616Z,27.50
2019-06-01T14:26:13.856Z,27.31
2019-06-01T14:29:17.571Z,27.30
2019-06-01T14:32:21.512Z,27.66
2019-06-01T14:35:25.620Z,27.44
2019-06-01T14:38:45.925Z,27.46
2019-06-01T14:41:34.764Z,26.72
2019-06-01T14:44:38.766Z,26.37
2019-06-01T14:47:42.788Z,26.19
2019-06-01T14:50:47.516Z,26.34
2019-06-01T14:53:51.676Z,26.64
2019-06-01T14:56:55.942Z,26.39
2019-06-01T14:59:59.594Z,26.17
2019-06-01T15:03:03.802Z,25.90
2019-06-01T15:06:08.200Z,25.68
2019-06-01T15:09:18.990Z,25.59
2019-06-01T15:12:17.759Z,25.61
2019-06-01T15:15:21.919Z,25.75
2019-06-01T15:18:25.997Z,25.87
2019-06-01T15:21:30.025Z,25.53
2019-06-01T15:24:34.024Z,25.56
2019-06-01T15:27:37.780Z,25.43
2019-06-01T15:30:41.870Z,25.24
2019-06-01T15:33:45.858Z,25.17
2019-06-01T15:36:49.600Z,25.13
2019-06-01T15:39:54.580Z,24.75
2019-06-01T15:42:59.373Z,24.79
2019-06-01T15:46:03.168Z,24.75
2019-06-01T15:49:07.361Z,24.65
2019-06-01T15:52:11.054Z,24.49
2019-06-01T15:55:15.674Z,24.34
2019-06-01T15:58:19.638Z,24.20
2019-06-01T16:01:23.349Z,24.27
2019-06-01T16:04:27.057Z,24.07
2019-06-01T16:07:30.993Z,24.03
2019-06-01T16:10:34.933Z,23.88
2019-06-01T16:13:38.642Z,23.68
2019-06-01T16:16:42.338Z,23.62
2019-06-01T16:19:46.289Z,23.59
2019-06-01T16:22:50.309Z,23.61
2019-06-01T16:26:06.650Z,23.74
2019-06-01T16:29:00.527Z,23.41
2019-06-01T16:32:05.018Z,23.40
2019-06-01T16:35:09.357Z,23.23
2019-06-01T16:38:13.148Z,23.29
2019-06-01T16:41:17.444Z,23.06
2019-06-01T16:44:21.201Z,23.13
2019-06-01T16:47:25.288Z,23.14
2019-06-01T16:50:29.010Z,23.08
2019-06-01T16:53:32.991Z,22.97
2019-06-01T16:56:36.713Z,23.00
2019-06-01T16:59:40.803Z,23.13
2019-06-01T17:02:44.592Z,22.87
2019-06-01T17:05:48.322Z,22.84
2019-06-01T17:08:52.369Z,22.85
2019-06-01T17:11:56.719Z,22.91
2019-06-01T17:15:00.926Z,22.80
2019-06-01T17:18:08.622Z,22.65
2019-06-01T17:21:10.956Z,22.54
2019-06-01T17:24:14.673Z,22.54
2019-06-01T17:27:18.665Z,22.55
2019-06-01T17:30:22.432Z,22.45
2019-06-01T17:33:26.435Z,22.41
2019-06-01T17:36:30.534Z,22.40
2019-06-01T17:39:34.248Z,22.27
2019-06-01T17:42:38.313Z,22.23
2019-06-01T17:45:42.155Z,22.05
2019-06-01T17:48:46.029Z,21.97
2019-06-01T17:51:49.825Z,21.92
2019-06-01T17:54:54.308Z,21.75
2019-06-01T17:57:58.269Z,21.70
2019-06-01T18:01:04.095Z,21.61
2019-06-01T18:04:08.146Z,21.43
2019-06-01T18:07:12.238Z,21.38
2019-06-01T18:10:17.116Z,21.26
2019-06-01T18:13:21.207Z,21.25
2019-06-01T18:16:25.047Z,21.15
2019-06-01T18:19:28.776Z,21.14
2019-06-01T18:22:32.771Z,21.13
2019-06-01T18:25:36.555Z,20.87
2019-06-01T18:28:40.266Z,20.86
2019-06-01T18:31:44.404Z,20.72
2019-06-01T18:34:48.421Z,20.57
2019-06-01T18:37:52.732Z,20.57
2019-06-01T18:41:09.462Z,20.42
2019-06-01T18:44:03.589Z,20.37
2019-06-01T18:47:07.852Z,20.34
2019-06-01T18:50:17.252Z,20.30
2019-06-01T18:53:19.669Z,20.14
2019-06-01T18:56:23.390Z,20.13
2019-06-01T18:59:27.694Z,20.01
2019-06-01T19:02:31.494Z,19.93
2019-06-01T19:05:35.815Z,19.83
2019-06-01T19:08:39.557Z,19.70
2019-06-01T19:11:43.531Z,19.73
2019-06-01T19:14:47.253Z,19.55
2019-06-01T19:17:51.006Z,19.38
2019-06-01T19:20:54.978Z,19.50
2019-06-01T19:23:58.700Z,19.35
2019-06-01T19:27:02.470Z,19.41
2019-06-01T19:30:08.877Z,19.14
2019-06-01T19:33:15.337Z,19.07
2019-06-01T19:36:19.148Z,18.98
2019-06-01T19:39:23.912Z,19.10
2019-06-01T19:42:27.611Z,18.82
2019-06-01T19:45:31.389Z,18.87
2019-06-01T19:48:35.089Z,18.83
2019-06-01T19:51:38.784Z,18.89
2019-06-01T19:54:42.488Z,18.85
2019-06-01T19:57:46.190Z,18.61
2019-06-01T20:00:50.141Z,18.32
2019-06-01T20:03:54.074Z,18.18
2019-06-01T20:06:57.771Z,18.15
2019-06-01T20:10:01.808Z,18.16
2019-06-01T20:13:05.868Z,18.08
2019-06-01T20:16:10.723Z,17.91
2019-06-01T20:19:15.602Z,17.80
2019-06-01T20:22:19.445Z,17.78
2019-06-01T20:25:23.478Z,17.60
2019-06-01T20:28:27.436Z,17.47
2019-06-01T20:31:31.504Z,17.33
2019-06-01T20:34:35.200Z,17.27
2019-06-01T20:37:39.514Z,17.16
2019-06-01T20:40:43.305Z,17.13
2019-06-01T20:43:47.300Z,17.04
2019-06-01T20:46:51.319Z,17.06
2019-06-01T20:49:55.346Z,17.08
2019-06-01T20:52:59.152Z,16.90
2019-06-01T20:56:02.872Z,17.14
2019-06-01T20:59:07.180Z,17.08
2019-06-01T21:02:10.925Z,16.85
2019-06-01T21:05:16.137Z,16.76
2019-06-01T21:08:20.369Z,16.81
2019-06-01T21:11:24.540Z,16.69
2019-06-01T21:14:28.496Z,16.52
2019-06-01T21:17:32.517Z,16.55
2019-06-01T21:20:36.482Z,16.35
2019-06-01T21:23:40.470Z,16.42
2019-06-01T21:26:44.648Z,16.42
2019-06-01T21:29:48.759Z,16.24
2019-06-01T21:32:52.523Z,16.25
2019-06-01T21:35:56.890Z,16.23
2019-06-01T21:39:00.666Z,16.23
2019-06-01T21:42:04.522Z,16.20
2019-06-01T21:45:08.966Z,16.08
2019-06-01T21:48:12.764Z,15.98
2019-06-01T21:51:17.648Z,15.98
2019-06-01T21:54:22.287Z,15.82
2019-06-01T21:57:26.667Z,15.82
2019-06-01T22:00:34.082Z,15.65
2019-06-01T22:03:37.826Z,15.67
2019-06-01T22:06:41.529Z,15.69
2019-06-01T22:09:45.244Z,15.69
2019-06-01T22:12:49.014Z,15.50
2019-06-01T22:15:54.374Z,15.57
2019-06-01T22:18:58.426Z,15.36
2019-06-01T22:22:03.052Z,15.36
2019-06-01T22:25:07.039Z,15.29
2019-06-01T22:28:11.183Z,15.28
2019-06-01T22:31:15.474Z,15.20
2019-06-01T22:34:20.584Z,15.07
2019-06-01T22:37:25.493Z,15.17
2019-06-01T22:40:29.771Z,15.12
2019-06-01T22:43:45.431Z,15.02
2019-06-01T22:46:39.797Z,15.07
2019-06-01T22:49:43.895Z,15.07
2019-06-01T22:52:47.953Z,14.94
2019-06-01T22:55:51.662Z,14.91
2019-06-01T22:58:55.724Z,14.99
2019-06-01T23:01:59.541Z,15.08
2019-06-01T23:05:03.284Z,15.00
2019-06-01T23:08:06.997Z,15.04
2019-06-01T23:11:10.790Z,15.03
2019-06-01T23:14:14.833Z,15.06
2019-06-01T23:17:18.541Z,15.01
2019-06-01T23:20:22.267Z,14.90
2019-06-01T23:23:26.084Z,14.94
2019-06-01T23:26:30.312Z,14.89
2019-06-01T23:29:34.177Z,14.74
2019-06-01T23:32:38.157Z,14.72
2019-06-01T23:35:42.181Z,14.67
2019-06-01T23:38:45.894Z,14.59
2019-06-01T23:41:49.612Z,14.55
2019-06-01T23:44:53.327Z,14.41
2019-06-01T23:47:57.045Z,14.46
2019-06-01T23:51:00.767Z,14.35
2019-06-01T23:54:04.555Z,14.22
2019-06-01T23:57:08.917Z,14.18
